Oklahoma City, OK (73112)

11:31 AM CST on February 27, 2015 (GMT -0600)
Stars-N-Stripes Park | Change Station
CLOSE
Current Station
Personal Weather Station
Location: Oklahoma City, OK
Elevation: 1222 ft
Nearby Weather Stations
Active Advisory: Winter Weather Advisory

Elev 1222 ft 35.54 °N, 97.58 °W | Updated 1 minute ago

Overcast
Overcast
21.0 °F
Feels Like 13 °F
N
6.3
Wind Variable Wind from NNE
Gusts 11.4 mph

Today
High -- | Low -- °F
--% Chance of Precip.
Yesterday
High -- | Low -- °F
Precip. -- in
7:02 AM 6:23 PM
Waxing Gibbous, 70% visible
Pressure 30.61 in
Visibility 10.0 miles
Clouds Overcast 5500 ft
Windchill 13 °F
Dew Point 2 °F
Humidity 43%
Rainfall 0.00 in
Snow Depth Not available.
UV 2 out of 12
Pollen 3.70 out of 12
Air Quality Not available.
Flu Activity Not available.
METAR KPWA 271653Z 05007KT 10SM OVC055 M07/M17 A3056 RMK AO2 SLP364 T10721167

More Conditions Fewer Conditions

Pressure 30.61 in
Visibility 10.0 miles
Clouds Overcast 5500 ft
Windchill 13 °F
Dew Point 2 °F
Humidity 43%
Rainfall 0.00 in
Snow Depth Not available.
UV 2 out of 12
Pollen 3.70 out of 12
Air Quality Not available.
Flu Activity Not available.
METAR KPWA 271653Z 05007KT 10SM OVC055 M07/M17 A3056 RMK AO2 SLP364 T10721167

More Conditions Fewer Conditions

10-Day Weather Forecast

Almanac

Astronomy

Feb. 27, 2015 Rise Set
Actual Time
Civil Twilight
Nautical Twilight
Astronomical Twilight
Moon
Length of Visible Light
Length of Day
Tomorrow will be .
, % of the Moon is Illuminated

Today's Extremes

State Highs State Lows

Community

WunderPhotos

Upload Photos

1,800,753 photos uploaded!

WunderBlogs® & News

Nearby

Air Quality

  Air Quality AQ Index Pollutant
Not available.

Snow Depth

Station Depth Elevation

Earthquake Activity

City Distance Mag. Time & Date
Minimum magnitude displayed is 2.5.

Coastal Water Temperatures

Place Temperature

Nearby Weather Stations

Winter Weather Advisory
Statement as of 10:56 AM CST on February 27, 2015

... Winter Weather Advisory in effect until 6 PM CST this
evening...

The National Weather Service in Norman has issued a Winter
Weather Advisory for accumulating snow... which is in effect until
6 PM CST this evening.

* Timing: accumulating snowfall will continue across northern
Oklahoma... with snow developing through noon across portions of
the Oklahoma City Metro and central Oklahoma.

* Main impact: 1 to 2 inches of snow.

* Other impacts: slick and hazardous roads are expected...
especially during the afternoon commute.

Precautionary/preparedness actions...

Be careful if you have to travel. Even small amounts of ice and
snow can make roads and sidewalks slick and dangerous.